createdAt,value
2019-01-04T00:00:06.396Z,2.07
2019-01-04T00:02:59.573Z,2.30
2019-01-04T00:05:34.827Z,2.73
2019-01-04T00:08:14.770Z,2.20
2019-01-04T00:10:48.748Z,2.93
2019-01-04T00:13:33.701Z,2.77
2019-01-04T00:16:09.232Z,2.53
2019-01-04T00:19:00.305Z,2.60
2019-01-04T00:21:38.226Z,2.60
2019-01-04T00:24:16.170Z,2.97
2019-01-04T00:26:47.445Z,2.40
2019-01-04T00:29:24.636Z,2.70
2019-01-04T00:32:01.028Z,3.23
2019-01-04T00:34:40.754Z,2.90
2019-01-04T00:37:26.597Z,2.63
2019-01-04T00:40:01.891Z,2.70
2019-01-04T00:42:52.648Z,2.40
2019-01-04T00:45:37.358Z,2.50
2019-01-04T00:48:14.139Z,3.93
2019-01-04T00:50:52.247Z,2.80
2019-01-04T00:53:27.473Z,2.83
2019-01-04T00:56:48.115Z,2.57
2019-01-04T01:00:06.325Z,2.50
2019-01-04T01:03:32.670Z,2.57
2019-01-04T01:07:10.978Z,2.87
2019-01-04T01:10:12.074Z,2.57
2019-01-04T01:13:16.089Z,3.00
2019-01-04T01:16:35.618Z,2.43
2019-01-04T01:19:45.866Z,2.57
2019-01-04T01:23:01.127Z,3.10
2019-01-04T01:25:59.842Z,2.70
2019-01-04T01:29:02.347Z,2.47
2019-01-04T01:32:03.038Z,2.77
2019-01-04T01:35:33.467Z,2.70
2019-01-04T01:38:47.762Z,2.40
2019-01-04T01:41:59.642Z,2.37
2019-01-04T01:45:19.899Z,2.77
2019-01-04T01:48:06.116Z,2.97
2019-01-04T01:51:22.350Z,3.00
2019-01-04T01:53:58.434Z,3.17
2019-01-04T01:56:31.581Z,2.70
2019-01-04T01:59:03.688Z,3.00
2019-01-04T02:01:41.289Z,3.13
2019-01-04T02:04:12.946Z,3.17
2019-01-04T02:06:56.687Z,2.67
2019-01-04T02:09:30.083Z,2.90
2019-01-04T02:12:14.935Z,2.80
2019-01-04T02:14:46.187Z,2.30
2019-01-04T02:17:17.015Z,2.83
2019-01-04T02:19:48.972Z,2.70
2019-01-04T02:22:23.378Z,2.70
2019-01-04T02:25:01.287Z,2.63
2019-01-04T02:27:35.703Z,2.73
2019-01-04T02:30:12.031Z,3.07
2019-01-04T02:32:47.199Z,2.93
2019-01-04T02:35:20.133Z,2.00
2019-01-04T02:37:58.960Z,2.93
2019-01-04T02:40:33.175Z,2.30
2019-01-04T02:43:08.381Z,2.63
2019-01-04T02:45:42.228Z,3.00
2019-01-04T02:48:17.581Z,2.63
2019-01-04T02:50:50.269Z,2.97
2019-01-04T02:53:41.457Z,2.73
2019-01-04T02:56:14.422Z,2.63
2019-01-04T02:58:46.565Z,2.37
2019-01-04T03:01:20.266Z,2.63
2019-01-04T03:04:09.200Z,2.30
2019-01-04T03:06:42.531Z,3.00
2019-01-04T03:09:15.306Z,2.30
2019-01-04T03:11:45.943Z,2.47
2019-01-04T03:14:16.955Z,2.67
2019-01-04T03:16:47.683Z,3.10
2019-01-04T03:19:18.497Z,2.90
2019-01-04T03:22:04.264Z,3.10
2019-01-04T03:24:35.364Z,2.43
2019-01-04T03:27:05.910Z,2.97
2019-01-04T03:29:36.688Z,2.73
2019-01-04T03:32:09.068Z,2.90
2019-01-04T03:34:40.546Z,2.67
2019-01-04T03:37:14.828Z,3.03
2019-01-04T03:39:51.520Z,2.90
2019-01-04T03:42:32.129Z,2.50
2019-01-04T03:45:05.320Z,2.80
2019-01-04T03:47:36.748Z,3.13
2019-01-04T03:50:26.256Z,2.80
2019-01-04T03:52:56.786Z,2.60
2019-01-04T03:55:27.329Z,3.00
2019-01-04T03:58:12.984Z,2.83
2019-01-04T04:00:43.822Z,2.27
2019-01-04T04:03:14.276Z,2.70
2019-01-04T04:05:44.826Z,2.60
2019-01-04T04:08:15.730Z,2.20
2019-01-04T04:10:46.304Z,2.70
2019-01-04T04:13:19.993Z,2.50
2019-01-04T04:15:53.005Z,2.30
2019-01-04T04:18:31.841Z,2.23
2019-01-04T04:21:04.213Z,2.50
2019-01-04T04:23:35.258Z,2.93
2019-01-04T04:26:06.225Z,2.70
2019-01-04T04:28:40.855Z,2.30
2019-01-04T04:31:13.019Z,3.00
2019-01-04T04:33:44.025Z,3.03
2019-01-04T04:36:29.761Z,2.67
2019-01-04T04:39:05.969Z,3.03
2019-01-04T04:41:39.507Z,4.00
2019-01-04T04:44:10.070Z,3.50
2019-01-04T04:46:42.301Z,3.23
2019-01-04T04:49:14.271Z,3.30
2019-01-04T04:51:48.874Z,3.63
2019-01-04T04:54:20.947Z,4.27
2019-01-04T04:57:09.443Z,2.67
2019-01-04T04:59:43.531Z,3.50
2019-01-04T05:02:14.466Z,2.93
2019-01-04T05:04:49.691Z,3.60
2019-01-04T05:07:22.758Z,3.00
2019-01-04T05:09:56.070Z,3.20
2019-01-04T05:12:31.494Z,3.00
2019-01-04T05:15:02.493Z,3.00
2019-01-04T05:17:39.331Z,2.50
2019-01-04T05:20:13.327Z,2.77
2019-01-04T05:22:56.161Z,2.40
2019-01-04T05:25:27.049Z,3.30
2019-01-04T05:28:03.205Z,3.03
2019-01-04T05:30:36.114Z,2.50
2019-01-04T05:33:07.443Z,2.70
2019-01-04T05:35:38.375Z,3.10
2019-01-04T05:38:28.018Z,3.07
2019-01-04T05:41:17.558Z,2.93
2019-01-04T05:44:06.994Z,3.03
2019-01-04T05:46:39.462Z,2.93
2019-01-04T05:49:12.491Z,2.50
2019-01-04T05:51:43.068Z,2.90
2019-01-04T05:54:14.060Z,2.77
2019-01-04T05:56:50.574Z,3.23
2019-01-04T05:59:25.849Z,2.30
2019-01-04T06:01:57.225Z,3.07
2019-01-04T06:04:27.826Z,2.90
2019-01-04T06:06:58.331Z,2.97
2019-01-04T06:09:32.100Z,2.90
2019-01-04T06:12:02.815Z,3.17
2019-01-04T06:14:33.367Z,2.97
2019-01-04T06:17:04.396Z,3.13
2019-01-04T06:19:35.429Z,3.03
2019-01-04T06:22:09.104Z,3.37
2019-01-04T06:24:43.335Z,3.50
2019-01-04T06:27:32.701Z,2.93
2019-01-04T06:30:13.614Z,2.77
2019-01-04T06:32:46.425Z,2.87
2019-01-04T06:35:27.593Z,2.70
2019-01-04T06:38:04.905Z,2.83
2019-01-04T06:40:46.312Z,2.93
2019-01-04T06:43:35.866Z,2.37
2019-01-04T06:46:15.243Z,3.33
2019-01-04T06:48:46.446Z,2.87
2019-01-04T06:51:42.551Z,3.10
2019-01-04T06:54:55.621Z,2.73
2019-01-04T06:57:45.789Z,3.40
2019-01-04T07:00:17.229Z,3.20
2019-01-04T07:02:56.155Z,3.50
2019-01-04T07:05:38.718Z,3.10
2019-01-04T07:08:27.429Z,3.67
2019-01-04T07:11:04.186Z,3.40
2019-01-04T07:13:34.853Z,4.23
2019-01-04T07:16:07.897Z,4.60
2019-01-04T07:18:42.820Z,4.10
2019-01-04T07:21:19.595Z,4.07
2019-01-04T07:23:52.528Z,3.80
2019-01-04T07:26:23.131Z,4.40
2019-01-04T07:28:53.646Z,3.40
2019-01-04T07:31:24.869Z,3.90
2019-01-04T07:33:55.339Z,3.80
2019-01-04T07:36:28.332Z,4.07
2019-01-04T07:38:59.665Z,4.60
2019-01-04T07:41:31.079Z,4.07
2019-01-04T07:44:04.461Z,3.93
2019-01-04T07:46:35.026Z,4.17
2019-01-04T07:49:06.093Z,4.40
2019-01-04T07:51:36.701Z,4.17
2019-01-04T07:54:08.915Z,4.37
2019-01-04T07:56:40.994Z,3.70
2019-01-04T07:59:11.674Z,4.10
2019-01-04T08:01:45.246Z,4.60
2019-01-04T08:04:18.065Z,3.80
2019-01-04T08:06:49.126Z,4.57
2019-01-04T08:09:19.700Z,5.10
2019-01-04T08:11:52.355Z,4.00
2019-01-04T08:14:24.017Z,4.80
2019-01-04T08:17:13.278Z,3.83
2019-01-04T08:19:43.890Z,4.97
2019-01-04T08:22:18.019Z,10.97
2019-01-04T08:24:53.803Z,4.73
2019-01-04T08:27:24.761Z,4.13
2019-01-04T08:29:55.637Z,4.63
2019-01-04T08:32:27.240Z,3.63
2019-01-04T08:35:02.041Z,4.90
2019-01-04T08:37:33.219Z,4.23
2019-01-04T08:40:03.930Z,3.70
2019-01-04T08:42:35.435Z,3.50
2019-01-04T08:45:06.493Z,3.70
2019-01-04T08:47:41.297Z,2.63
2019-01-04T08:50:13.967Z,3.63
2019-01-04T08:52:47.120Z,3.83
2019-01-04T08:55:29.213Z,3.70
2019-01-04T08:58:18.738Z,3.83
2019-01-04T09:00:53.387Z,2.93
2019-01-04T09:03:27.261Z,4.00
2019-01-04T09:06:10.651Z,4.27
2019-01-04T09:08:44.612Z,3.60
2019-01-04T09:11:27.402Z,3.93
2019-01-04T09:14:00.642Z,3.87
2019-01-04T09:16:34.887Z,4.07
2019-01-04T09:19:07.444Z,3.27
2019-01-04T09:21:41.783Z,3.93
2019-01-04T09:24:14.090Z,3.50
2019-01-04T09:26:47.676Z,4.07
2019-01-04T09:29:21.668Z,4.23
2019-01-04T09:31:55.572Z,3.70
2019-01-04T09:34:27.722Z,3.60
2019-01-04T09:36:59.623Z,4.37
2019-01-04T09:39:32.446Z,3.30
2019-01-04T09:42:17.622Z,3.50
2019-01-04T09:44:48.792Z,3.83
2019-01-04T09:47:22.058Z,3.73
2019-01-04T09:49:56.821Z,4.13
2019-01-04T09:52:27.473Z,3.93
2019-01-04T09:55:01.062Z,4.50
2019-01-04T09:57:35.243Z,3.33
2019-01-04T10:00:12.194Z,3.90
2019-01-04T10:02:47.083Z,4.10
2019-01-04T10:05:20.936Z,3.60
2019-01-04T10:07:54.022Z,4.10
2019-01-04T10:10:36.666Z,3.30
2019-01-04T10:13:12.145Z,3.87
2019-01-04T10:16:12.198Z,3.93
2019-01-04T10:18:46.946Z,3.63
2019-01-04T10:21:38.592Z,3.20
2019-01-04T10:24:17.052Z,2.87
2019-01-04T10:27:08.682Z,3.57
2019-01-04T10:29:48.273Z,2.73
2019-01-04T10:32:22.454Z,2.50
2019-01-04T10:34:59.757Z,2.53
2019-01-04T10:37:34.542Z,3.00
2019-01-04T10:40:11.122Z,2.53
2019-01-04T10:43:01.096Z,3.33
2019-01-04T10:45:32.231Z,2.30
2019-01-04T10:48:05.568Z,2.63
2019-01-04T10:50:39.729Z,2.77
2019-01-04T10:53:12.030Z,3.50
2019-01-04T10:55:51.604Z,2.70
2019-01-04T10:58:22.558Z,2.37
2019-01-04T11:01:11.348Z,2.90
2019-01-04T11:03:53.671Z,2.50
2019-01-04T11:06:26.963Z,2.57
2019-01-04T11:09:01.186Z,2.57
2019-01-04T11:11:45.793Z,3.13
2019-01-04T11:14:19.862Z,3.20
2019-01-04T11:16:57.002Z,2.70
2019-01-04T11:19:30.855Z,3.10
2019-01-04T11:23:03.765Z,3.33
2019-01-04T11:26:02.111Z,4.50
2019-01-04T11:29:35.843Z,3.90
2019-01-04T11:32:42.356Z,3.10
2019-01-04T11:36:23.685Z,3.27
2019-01-04T11:39:34.935Z,3.67
2019-01-04T11:42:42.200Z,3.50
2019-01-04T11:45:51.065Z,3.20
2019-01-04T11:48:59.136Z,3.20
2019-01-04T11:52:21.738Z,3.30
2019-01-04T11:54:57.612Z,3.90
2019-01-04T11:57:30.067Z,3.70
2019-01-04T12:00:04.367Z,3.77
2019-01-04T12:02:48.451Z,3.37
2019-01-04T12:05:21.383Z,2.53
2019-01-04T12:08:00.873Z,3.10
2019-01-04T12:10:33.309Z,2.80
2019-01-04T12:13:05.558Z,3.30
2019-01-04T12:15:37.840Z,3.13
2019-01-04T12:18:12.654Z,3.30
2019-01-04T12:20:57.460Z,2.90
2019-01-04T12:23:30.042Z,4.10
2019-01-04T12:26:02.871Z,3.33
2019-01-04T12:28:35.958Z,4.30
2019-01-04T12:31:16.010Z,5.10
2019-01-04T12:34:02.258Z,7.27
2019-01-04T12:36:32.859Z,10.37
2019-01-04T12:39:12.967Z,10.00
2019-01-04T12:41:54.663Z,9.20
2019-01-04T12:44:34.336Z,10.60
2019-01-04T12:47:12.068Z,7.87
2019-01-04T12:49:59.799Z,9.27
2019-01-04T12:52:33.651Z,7.30
2019-01-04T12:55:07.377Z,7.47
2019-01-04T12:57:39.859Z,7.30
2019-01-04T13:00:15.631Z,6.80
2019-01-04T13:02:48.546Z,7.37
2019-01-04T13:05:25.632Z,6.70
2019-01-04T13:08:02.357Z,6.73
2019-01-04T13:10:51.697Z,6.23
2019-01-04T13:13:29.050Z,5.80
2019-01-04T13:16:05.115Z,6.60
2019-01-04T13:18:52.042Z,7.57
2019-01-04T13:21:24.941Z,7.77
2019-01-04T13:23:56.359Z,8.00
2019-01-04T13:26:29.624Z,8.20
2019-01-04T13:29:07.134Z,7.37
2019-01-04T13:31:43.135Z,8.67
2019-01-04T13:34:14.542Z,8.87
2019-01-04T13:37:01.623Z,8.67
2019-01-04T13:39:32.657Z,8.20
2019-01-04T13:42:29.052Z,8.00
2019-01-04T13:45:04.336Z,8.93
2019-01-04T13:47:35.956Z,8.23
2019-01-04T13:50:09.182Z,9.03
2019-01-04T13:52:47.777Z,9.70
2019-01-04T13:55:20.517Z,8.60
2019-01-04T13:57:51.638Z,9.77
2019-01-04T14:00:24.493Z,9.83
2019-01-04T14:02:56.002Z,8.63
2019-01-04T14:05:29.257Z,10.97
2019-01-04T14:08:06.377Z,8.70
2019-01-04T14:10:42.647Z,8.70
2019-01-04T14:13:17.145Z,9.43
2019-01-04T14:15:56.223Z,8.20
2019-01-04T14:18:26.791Z,8.80
2019-01-04T14:20:57.746Z,9.17
2019-01-04T14:23:33.503Z,8.83
2019-01-04T14:26:09.830Z,8.70
2019-01-04T14:28:46.502Z,8.10
2019-01-04T14:31:21.723Z,10.27
2019-01-04T14:34:09.726Z,8.70
2019-01-04T14:36:41.859Z,10.70
2019-01-04T14:39:17.437Z,11.63
2019-01-04T14:41:48.348Z,11.13
2019-01-04T14:44:18.851Z,11.80
2019-01-04T14:46:49.475Z,12.97
2019-01-04T14:49:20.354Z,12.67
2019-01-04T14:51:50.996Z,14.90
2019-01-04T14:54:21.945Z,15.10
2019-01-04T14:56:54.582Z,14.93
2019-01-04T14:59:28.713Z,15.10
2019-01-04T15:02:01.833Z,15.10
2019-01-04T15:04:35.989Z,16.43
2019-01-04T15:07:08.942Z,14.43
2019-01-04T15:09:40.084Z,13.87
2019-01-04T15:12:14.403Z,14.90
2019-01-04T15:15:06.982Z,14.10
2019-01-04T15:17:55.976Z,15.27
2019-01-04T15:20:27.402Z,15.00
2019-01-04T15:22:57.863Z,16.23
2019-01-04T15:25:28.448Z,16.93
2019-01-04T15:28:00.969Z,18.30
2019-01-04T15:30:44.992Z,17.37
2019-01-04T15:33:16.035Z,15.37
2019-01-04T15:35:47.380Z,15.30
2019-01-04T15:38:27.662Z,14.20
2019-01-04T15:41:00.962Z,13.10
2019-01-04T15:43:33.052Z,15.23
2019-01-04T15:46:04.884Z,14.40
2019-01-04T15:48:35.623Z,13.80
2019-01-04T15:51:06.177Z,15.10
2019-01-04T15:53:37.511Z,13.50
2019-01-04T15:56:11.821Z,14.13
2019-01-04T15:58:46.877Z,15.40
2019-01-04T16:01:17.726Z,15.07
2019-01-04T16:03:53.037Z,14.43
2019-01-04T16:06:25.377Z,14.30
2019-01-04T16:08:58.381Z,15.40
2019-01-04T16:11:33.102Z,13.67
2019-01-04T16:14:22.546Z,13.83
2019-01-04T16:16:57.789Z,13.63
2019-01-04T16:19:28.480Z,13.40
2019-01-04T16:22:00.387Z,14.73
2019-01-04T16:24:32.203Z,12.57
2019-01-04T16:27:06.937Z,12.10
2019-01-04T16:29:57.181Z,14.47
2019-01-04T16:32:27.773Z,12.17
2019-01-04T16:35:17.118Z,13.80
2019-01-04T16:37:48.288Z,14.20
2019-01-04T16:40:19.043Z,13.63
2019-01-04T16:42:51.788Z,13.83
2019-01-04T16:45:26.515Z,12.80
2019-01-04T16:48:01.446Z,13.97
2019-01-04T16:50:37.249Z,14.20
2019-01-04T16:53:26.437Z,12.97
2019-01-04T16:56:01.062Z,12.60
2019-01-04T16:58:34.210Z,14.17
2019-01-04T17:01:07.173Z,15.00
2019-01-04T17:03:40.515Z,13.90
2019-01-04T17:06:20.564Z,13.90
2019-01-04T17:08:53.900Z,13.93
2019-01-04T17:11:27.833Z,13.43
2019-01-04T17:14:05.209Z,14.23
2019-01-04T17:16:45.064Z,13.57
2019-01-04T17:19:20.099Z,13.30
2019-01-04T17:21:58.944Z,16.13
2019-01-04T17:24:37.151Z,15.00
2019-01-04T17:27:10.577Z,15.00
2019-01-04T17:29:56.513Z,14.07
2019-01-04T17:32:28.287Z,13.07
2019-01-04T17:35:13.840Z,14.70
2019-01-04T17:37:47.965Z,14.90
2019-01-04T17:40:20.214Z,13.70
2019-01-04T17:42:51.078Z,16.30
2019-01-04T17:45:28.952Z,14.37
2019-01-04T17:48:05.637Z,13.37
2019-01-04T17:50:40.799Z,14.17
2019-01-04T17:53:11.315Z,14.33
2019-01-04T17:55:42.832Z,13.90
2019-01-04T17:58:36.305Z,13.50
2019-01-04T18:01:08.124Z,14.37
2019-01-04T18:03:42.330Z,14.17
2019-01-04T18:06:29.624Z,13.60
2019-01-04T18:09:11.019Z,12.37
2019-01-04T18:11:44.129Z,12.97
2019-01-04T18:14:17.379Z,14.27
2019-01-04T18:16:50.359Z,13.33
2019-01-04T18:19:26.397Z,12.17
2019-01-04T18:22:00.360Z,13.27
2019-01-04T18:24:32.521Z,11.37
2019-01-04T18:27:06.206Z,10.80
2019-01-04T18:29:43.775Z,12.00
2019-01-04T18:32:31.098Z,11.90
2019-01-04T18:35:07.651Z,9.97
2019-01-04T18:37:51.056Z,11.93
2019-01-04T18:40:22.336Z,11.70
2019-01-04T18:43:01.528Z,10.60
2019-01-04T18:45:43.517Z,11.07
2019-01-04T18:48:17.856Z,9.90
2019-01-04T18:51:11.601Z,11.07
2019-01-04T18:53:45.087Z,11.10
2019-01-04T18:56:15.851Z,12.30
2019-01-04T18:58:48.537Z,10.67
2019-01-04T19:01:26.478Z,11.03
2019-01-04T19:03:59.726Z,11.20
2019-01-04T19:06:34.001Z,10.70
2019-01-04T19:09:09.448Z,10.17
2019-01-04T19:11:52.647Z,10.67
2019-01-04T19:14:26.817Z,9.23
2019-01-04T19:17:04.679Z,9.90
2019-01-04T19:19:41.257Z,10.40
2019-01-04T19:22:31.654Z,10.17
2019-01-04T19:25:07.560Z,9.23
2019-01-04T19:27:48.471Z,9.37
2019-01-04T19:30:20.653Z,8.90
2019-01-04T19:32:53.973Z,9.23
2019-01-04T19:35:26.493Z,9.13
2019-01-04T19:38:01.455Z,8.87
2019-01-04T19:40:38.530Z,8.10
2019-01-04T19:43:13.565Z,8.50
2019-01-04T19:45:46.036Z,8.90
2019-01-04T19:48:17.144Z,9.10
2019-01-04T19:50:54.099Z,9.00
2019-01-04T19:53:30.698Z,8.73
2019-01-04T19:56:08.877Z,9.23
2019-01-04T19:58:41.103Z,9.40
2019-01-04T20:01:18.967Z,9.93
2019-01-04T20:03:54.971Z,8.40
2019-01-04T20:11:21.167Z,9.70
2019-01-04T20:15:30.534Z,8.83
2019-01-04T20:18:28.755Z,8.67
2019-01-04T20:21:20.644Z,9.10
2019-01-04T20:24:18.369Z,10.60
2019-01-04T20:27:07.284Z,10.50
2019-01-04T20:30:16.444Z,10.33
2019-01-04T20:33:26.744Z,11.87
2019-01-04T20:36:19.750Z,11.73
2019-01-04T20:39:09.581Z,9.67
2019-01-04T20:42:02.002Z,10.53
2019-01-04T20:45:04.155Z,12.13
2019-01-04T20:48:16.949Z,10.63
2019-01-04T20:51:30.624Z,10.70
2019-01-04T20:54:24.956Z,10.70
2019-01-04T20:57:18.167Z,11.07
2019-01-04T21:00:26.884Z,12.00
2019-01-04T21:03:26.156Z,11.20
2019-01-04T21:06:41.920Z,11.40
2019-01-04T21:09:39.820Z,10.60
2019-01-04T21:12:46.166Z,9.90
2019-01-04T21:15:47.890Z,10.10
2019-01-04T21:18:58.624Z,9.83
2019-01-04T21:21:54.423Z,10.70
2019-01-04T21:24:40.264Z,9.73
2019-01-04T21:27:29.037Z,9.90
2019-01-04T21:30:34.444Z,8.53
2019-01-04T21:33:31.573Z,8.70
2019-01-04T21:36:26.497Z,9.60
2019-01-04T21:39:21.067Z,9.87
2019-01-04T21:42:33.222Z,8.27
2019-01-04T21:45:30.193Z,8.70
2019-01-04T21:48:22.420Z,6.80
2019-01-04T21:51:36.563Z,7.60
2019-01-04T21:54:52.849Z,8.03
2019-01-04T21:57:56.363Z,8.57
2019-01-04T22:00:56.841Z,7.63
2019-01-04T22:03:47.950Z,8.07
2019-01-04T22:06:47.402Z,7.70
2019-01-04T22:09:36.000Z,8.50
2019-01-04T22:12:44.083Z,7.40
2019-01-04T22:15:38.238Z,7.47
2019-01-04T22:18:39.573Z,7.83
2019-01-04T22:21:51.394Z,8.00
2019-01-04T22:25:02.344Z,9.27
2019-01-04T22:27:52.276Z,9.37
2019-01-04T22:30:57.776Z,9.13
2019-01-04T22:33:47.409Z,8.60
2019-01-04T22:36:58.395Z,9.10
2019-01-04T22:39:46.517Z,9.10
2019-01-04T22:42:50.881Z,8.80
2019-01-04T22:46:00.621Z,8.20
2019-01-04T22:48:52.027Z,9.13
2019-01-04T22:51:51.228Z,9.77
2019-01-04T22:54:46.503Z,8.93
2019-01-04T22:57:42.045Z,8.20
2019-01-04T23:00:39.706Z,9.10
2019-01-04T23:03:51.710Z,8.87
2019-01-04T23:06:55.490Z,9.27
2019-01-04T23:09:46.939Z,9.23
2019-01-04T23:12:48.987Z,9.37
2019-01-04T23:15:44.427Z,9.10
2019-01-04T23:18:44.593Z,8.10
2019-01-04T23:22:13.817Z,8.20
2019-01-04T23:25:26.914Z,8.50
2019-01-04T23:28:25.724Z,8.90
2019-01-04T23:31:43.801Z,8.30
2019-01-04T23:34:51.978Z,7.73
2019-01-04T23:37:52.944Z,8.53
2019-01-04T23:41:18.256Z,7.87
2019-01-04T23:44:24.637Z,9.80
2019-01-04T23:47:17.642Z,8.17
2019-01-04T23:50:16.714Z,9.37
2019-01-04T23:53:28.343Z,7.80
2019-01-04T23:56:26.157Z,8.23
2019-01-04T23:59:38.962Z,9.20
